Time,TemperatureF,DewpointF,PressureIn,WindDirection,WindDirectionDegrees,WindSpeedMPH,WindSpeedGustMPH,Humidity,HourlyPrecipIn,Conditions,Clouds,dailyrainin,SolarRadiationWatts/m^2,SoftwareType,DateUTC
2014-04-24 00:03:00,70.0,17.0,29.69,SW,231,14.0,17.0,13,0.00,,,-99.99,0.557000,,2014-04-24 05:03:00,
2014-04-24 00:22:00,70.0,16.0,29.69,WSW,241,19.0,25.0,13,0.00,,,-99.99,0.911000,,2014-04-24 05:22:00,
2014-04-24 00:33:00,70.0,16.0,29.69,WSW,241,19.0,25.0,13,0.00,,,-99.99,0.911000,,2014-04-24 05:33:00,
2014-04-24 00:52:00,72.0,16.0,29.72,West,267,23.0,30.0,11,0.00,,,-99.99,1.185000,,2014-04-24 05:52:00,
2014-04-24 01:02:00,72.0,16.0,29.72,West,267,23.0,30.0,11,0.00,,,-99.99,1.185000,,2014-04-24 06:02:00,
2014-04-24 01:22:00,69.0,17.0,29.74,West,277,17.0,21.0,14,0.00,,,-99.99,0.830000,,2014-04-24 06:22:00,
2014-04-24 01:32:00,69.0,17.0,29.74,West,277,17.0,21.0,14,0.00,,,-99.99,0.830000,,2014-04-24 06:32:00,
2014-04-24 01:52:00,67.0,20.0,29.74,WNW,287,17.0,20.0,16,0.00,,,-99.99,0.671000,,2014-04-24 06:52:00,
2014-04-24 02:02:00,67.0,20.0,29.74,WNW,287,17.0,20.0,16,0.00,,,-99.99,0.671000,,2014-04-24 07:02:00,
2014-04-24 02:22:00,65.0,21.0,29.75,WNW,287,13.0,16.0,18,0.00,,,-99.99,0.415000,,2014-04-24 07:22:00,
2014-04-24 02:32:00,65.0,21.0,29.75,WNW,287,13.0,16.0,18,0.00,,,-99.99,0.415000,,2014-04-24 07:32:00,
2014-04-24 02:52:00,62.0,21.0,29.75,WNW,283,13.0,15.0,20,0.00,,,-99.99,0.502000,,2014-04-24 07:52:00,
2014-04-24 03:03:00,62.0,21.0,29.75,WNW,283,13.0,15.0,20,0.00,,,-99.99,0.502000,,2014-04-24 08:03:00,
2014-04-24 03:22:00,62.0,21.0,29.75,WNW,283,13.0,16.0,21,0.00,,,-99.99,0.487000,,2014-04-24 08:22:00,
2014-04-24 03:32:00,62.0,21.0,29.75,WNW,283,13.0,16.0,21,0.00,,,-99.99,0.487000,,2014-04-24 08:32:00,
2014-04-24 03:52:00,63.0,20.0,29.76,West,279,15.0,19.0,20,0.00,,,-99.99,0.689000,,2014-04-24 08:52:00,
2014-04-24 04:02:00,63.0,20.0,29.76,West,279,15.0,19.0,20,0.00,,,-99.99,0.689000,,2014-04-24 09:02:00,
2014-04-24 04:22:00,64.0,19.0,29.76,WNW,283,21.0,24.0,17,0.00,,,-99.99,0.670000,,2014-04-24 09:22:00,
2014-04-24 04:34:00,64.0,19.0,29.76,WNW,283,21.0,24.0,17,0.00,,,-99.99,0.670000,,2014-04-24 09:34:00,
2014-04-24 04:53:00,63.0,18.0,29.79,WNW,283,23.0,29.0,18,0.00,,,-99.99,0.902000,,2014-04-24 09:53:00,
2014-04-24 05:03:00,63.0,18.0,29.79,WNW,283,23.0,29.0,18,0.00,,,-99.99,0.902000,,2014-04-24 10:03:00,
2014-04-24 05:23:00,61.0,18.0,29.81,West,277,17.0,20.0,19,0.00,,,-99.99,0.645000,,2014-04-24 10:23:00,
2014-04-24 05:33:00,61.0,18.0,29.81,West,277,17.0,20.0,19,0.00,,,-99.99,0.645000,,2014-04-24 10:33:00,
2014-04-24 05:54:00,59.0,17.0,29.83,West,278,15.0,19.0,20,0.00,,,-99.99,0.539000,,2014-04-24 10:54:00,
2014-04-24 06:03:00,59.0,17.0,29.83,West,278,15.0,19.0,20,0.00,,,-99.99,0.539000,,2014-04-24 11:03:00,
2014-04-24 06:22:00,58.0,17.0,29.86,NW,315,17.0,21.0,20,0.00,,,-99.99,0.835000,,2014-04-24 11:22:00,
2014-04-24 06:34:00,58.0,17.0,29.86,NW,315,17.0,21.0,20,0.00,,,-99.99,0.835000,,2014-04-24 11:34:00,
2014-04-24 06:52:00,56.0,22.0,29.88,NNW,330,15.0,18.0,27,0.00,,,-99.99,0.593000,,2014-04-24 11:52:00,
2014-04-24 07:02:00,56.0,22.0,29.88,NNW,330,15.0,18.0,27,0.00,,,-99.99,0.593000,,2014-04-24 12:02:00,
2014-04-24 07:52:00,54.0,32.0,29.94,North,351,25.0,33.0,44,0.00,,,-99.99,1.515000,,2014-04-24 12:52:00,
2014-04-24 08:02:00,54.0,32.0,29.94,North,351,25.0,33.0,44,0.00,,,-99.99,1.515000,,2014-04-24 13:02:00,
2014-04-24 08:22:00,53.0,32.0,29.97,NNW,347,25.0,33.0,46,0.00,,,-99.99,1.359000,,2014-04-24 13:22:00,
2014-04-24 08:32:00,53.0,32.0,29.97,NNW,347,25.0,33.0,46,0.00,,,-99.99,1.359000,,2014-04-24 13:32:00,
2014-04-24 08:52:00,53.0,32.0,29.99,North,352,27.0,33.0,47,0.00,,,-99.99,1.276000,,2014-04-24 13:52:00,
2014-04-24 09:02:00,53.0,32.0,29.99,North,352,27.0,33.0,47,0.00,,,-99.99,1.276000,,2014-04-24 14:02:00,
2014-04-24 09:22:00,54.0,33.0,30.00,North,358,26.0,34.0,46,0.00,,,-99.99,1.398000,,2014-04-24 14:22:00,
2014-04-24 09:32:00,54.0,33.0,30.00,North,358,26.0,34.0,46,0.00,,,-99.99,1.398000,,2014-04-24 14:32:00,
2014-04-24 09:52:00,57.0,33.0,30.02,North,3,24.0,32.0,42,0.00,,,-99.99,1.711000,,2014-04-24 14:52:00,
2014-04-24 10:02:00,57.0,33.0,30.02,North,3,24.0,32.0,42,0.00,,,-99.99,1.711000,,2014-04-24 15:02:00,
2014-04-24 10:22:00,59.0,33.0,30.03,North,8,22.0,27.0,38,0.00,,,-99.99,1.062000,,2014-04-24 15:22:00,
2014-04-24 10:34:00,59.0,33.0,30.03,North,8,22.0,27.0,38,0.00,,,-99.99,1.062000,,2014-04-24 15:34:00,